Crane Naval Weapons Support, Indiana
Current Conditions -  °F | °C
As of 9:35 PM on Monday 20 Oct 2014 (Local Time) from KDCY Reporting Station
Clear Clear  
Wind Chill: 56°   Ceiling: Unl
Heat Index: 56°   Visibility: 10mi
Dew Point: 46°   Wind: 7mph
Humidity: 69%   Direction: 300°WNW
Pressure: 29.96"   Gusts: NA
Location:  38.8381°N, 86.8142°W
Report Text: KDCY 210235Z AUTO 30006KT 10SM CLR 14/08 A2996 RMK AO2 T01360080
Loading
Personal Weather Stations






























Interactive Weather Map
Tropical Storm Tracking
New forecast layout! Learn more

10-Day Weather Forecast

Advertisements
Track Severe Weather on mobile